createdAt,value
2018-04-08T00:00:05.085Z,12.72
2018-04-08T00:01:04.969Z,12.67
2018-04-08T00:02:05.121Z,12.64
2018-04-08T00:03:05.317Z,12.60
2018-04-08T00:04:04.121Z,12.55
2018-04-08T00:05:04.813Z,12.53
2018-04-08T00:06:28.030Z,12.45
2018-04-08T00:07:28.895Z,12.43
2018-04-08T00:08:29.153Z,12.43
2018-04-08T00:09:29.260Z,12.42
2018-04-08T00:10:28.862Z,12.40
2018-04-08T00:11:28.795Z,12.42
2018-04-08T00:12:28.649Z,12.43
2018-04-08T00:13:49.708Z,12.53
2018-04-08T00:14:50.861Z,12.53
2018-04-08T00:15:50.539Z,12.53
2018-04-08T00:16:50.339Z,12.49
2018-04-08T00:17:50.797Z,12.46
2018-04-08T00:18:51.450Z,12.43
2018-04-08T00:19:50.555Z,12.39
2018-04-08T00:20:50.303Z,12.37
2018-04-08T00:21:50.144Z,12.36
2018-04-08T00:22:50.300Z,12.35
2018-04-08T00:23:50.341Z,12.31
2018-04-08T00:24:49.934Z,12.28
2018-04-08T00:25:50.862Z,12.24
2018-04-08T00:27:11.906Z,12.20
2018-04-08T00:28:12.817Z,12.17
2018-04-08T00:29:54.670Z,12.09
2018-04-08T00:30:55.368Z,12.04
2018-04-08T00:31:55.634Z,12.02
2018-04-08T00:32:55.133Z,11.99
2018-04-08T00:33:54.787Z,11.90
2018-04-08T00:34:55.491Z,11.88
2018-04-08T00:35:55.148Z,11.87
2018-04-08T00:36:54.731Z,11.86
2018-04-08T00:37:55.740Z,11.83
2018-04-08T00:38:55.263Z,11.86
2018-04-08T00:39:55.370Z,11.88
2018-04-08T00:40:55.281Z,11.88
2018-04-08T00:41:55.313Z,11.86
2018-04-08T00:42:54.943Z,11.84
2018-04-08T00:43:55.511Z,11.83
2018-04-08T00:44:55.514Z,11.83
2018-04-08T00:45:55.426Z,11.84
2018-04-08T00:46:54.875Z,11.83
2018-04-08T00:48:16.762Z,11.87
2018-04-08T00:49:39.326Z,11.90
2018-04-08T00:50:39.074Z,11.90
2018-04-08T00:51:39.659Z,11.87
2018-04-08T00:52:39.288Z,11.84
2018-04-08T00:53:39.028Z,11.83
2018-04-08T00:54:39.766Z,11.80
2018-04-08T00:55:39.888Z,11.75
2018-04-08T00:56:39.643Z,11.70
2018-04-08T00:58:01.030Z,11.65
2018-04-08T00:59:01.074Z,11.60
2018-04-08T01:00:21.799Z,11.55
2018-04-08T01:01:22.469Z,11.52
2018-04-08T01:02:22.513Z,11.51
2018-04-08T01:03:22.092Z,11.51
2018-04-08T01:04:22.127Z,11.48
2018-04-08T01:05:44.108Z,11.45
2018-04-08T01:06:45.514Z,11.44
2018-04-08T01:07:45.167Z,11.44
2018-04-08T01:09:04.768Z,11.43
2018-04-08T01:10:27.280Z,11.41
2018-04-08T01:11:27.261Z,11.40
2018-04-08T01:12:27.006Z,11.37
2018-04-08T01:13:48.517Z,11.40
2018-04-08T01:14:49.258Z,11.40
2018-04-08T01:15:49.044Z,11.43
2018-04-08T01:16:49.630Z,11.41
2018-04-08T01:17:49.306Z,11.41
2018-04-08T01:18:49.330Z,11.41
2018-04-08T01:19:49.159Z,11.43
2018-04-08T01:20:49.109Z,11.43
2018-04-08T01:21:49.280Z,11.43
2018-04-08T01:22:48.874Z,11.43
2018-04-08T01:23:49.892Z,11.43
2018-04-08T01:24:49.365Z,11.43
2018-04-08T01:25:49.236Z,11.45
2018-04-08T01:26:49.222Z,11.47
2018-04-08T01:27:49.120Z,11.45
2018-04-08T01:28:48.765Z,11.45
2018-04-08T01:30:11.227Z,11.43
2018-04-08T01:32:13.505Z,11.37
2018-04-08T01:33:14.496Z,11.36
2018-04-08T01:34:16.030Z,11.40
2018-04-08T01:35:14.535Z,11.43
2018-04-08T01:36:55.899Z,11.44
2018-04-08T01:38:17.661Z,11.45
2018-04-08T01:39:18.301Z,11.47
2018-04-08T01:40:17.878Z,11.51
2018-04-08T01:41:18.090Z,11.54
2018-04-08T01:42:38.902Z,11.54
2018-04-08T01:43:38.767Z,11.55
2018-04-08T01:44:39.672Z,11.57
2018-04-08T01:45:39.719Z,11.57
2018-04-08T01:47:00.927Z,11.57
2018-04-08T01:48:02.166Z,11.55
2018-04-08T01:49:02.162Z,11.55
2018-04-08T01:50:01.708Z,11.54
2018-04-08T01:51:01.416Z,11.54
2018-04-08T01:52:00.955Z,11.54
2018-04-08T01:53:22.900Z,11.55
2018-04-08T01:54:23.137Z,11.54
2018-04-08T01:55:23.268Z,11.54
2018-04-08T01:56:23.368Z,11.52
2018-04-08T01:57:23.193Z,11.54
2018-04-08T01:58:22.697Z,11.55
2018-04-08T01:59:23.485Z,11.55
2018-04-08T02:00:23.052Z,11.52
2018-04-08T02:01:23.132Z,11.50
2018-04-08T02:02:23.073Z,11.48
2018-04-08T02:03:22.683Z,11.50
2018-04-08T02:04:23.397Z,11.50
2018-04-08T02:05:23.378Z,11.51
2018-04-08T02:06:23.095Z,11.51
2018-04-08T02:07:22.713Z,11.54
2018-04-08T02:08:23.549Z,11.54
2018-04-08T02:09:23.285Z,11.54
2018-04-08T02:10:22.901Z,11.51
2018-04-08T02:11:22.562Z,11.52
2018-04-08T02:12:44.769Z,11.54
2018-04-08T02:13:45.525Z,11.51
2018-04-08T02:14:45.146Z,11.50
2018-04-08T02:16:05.753Z,11.45
2018-04-08T02:17:06.699Z,11.37
2018-04-08T02:18:27.775Z,11.36
2018-04-08T02:19:29.125Z,11.32
2018-04-08T02:20:29.121Z,11.30
2018-04-08T02:21:28.073Z,11.30
2018-04-08T02:22:28.891Z,11.32
2018-04-08T02:23:28.979Z,11.37
2018-04-08T02:24:28.725Z,11.41
2018-04-08T02:25:28.354Z,11.41
2018-04-08T02:26:28.107Z,11.41
2018-04-08T02:27:28.800Z,11.41
2018-04-08T02:28:49.496Z,11.44
2018-04-08T02:29:50.232Z,11.41
2018-04-08T02:30:50.231Z,11.40
2018-04-08T02:31:50.131Z,11.40
2018-04-08T02:32:50.154Z,11.40
2018-04-08T02:33:49.568Z,11.35
2018-04-08T02:34:50.221Z,11.32
2018-04-08T02:35:49.543Z,11.30
2018-04-08T02:36:54.306Z,11.30
2018-04-08T02:37:54.280Z,11.30
2018-04-08T02:39:10.613Z,11.30
2018-04-08T02:40:11.077Z,11.29
2018-04-08T02:41:11.601Z,11.29
2018-04-08T02:42:11.248Z,11.29
2018-04-08T02:43:10.622Z,11.26
2018-04-08T02:44:10.937Z,11.23
2018-04-08T02:45:11.722Z,11.18
2018-04-08T02:46:31.222Z,11.14
2018-04-08T02:47:31.510Z,11.11
2018-04-08T02:48:32.101Z,11.11
2018-04-08T02:49:32.013Z,11.08
2018-04-08T02:50:31.411Z,11.10
2018-04-08T02:51:32.118Z,11.08
2018-04-08T02:52:31.675Z,11.07
2018-04-08T02:53:32.318Z,11.05
2018-04-08T02:54:32.253Z,11.05
2018-04-08T02:55:54.228Z,11.04
2018-04-08T02:56:54.765Z,11.04
2018-04-08T02:57:54.270Z,11.07
2018-04-08T02:58:54.866Z,11.07
2018-04-08T03:00:15.545Z,11.07
2018-04-08T03:01:16.048Z,11.04
2018-04-08T03:02:15.944Z,11.02
2018-04-08T03:03:15.413Z,11.02
2018-04-08T03:04:16.126Z,11.05
2018-04-08T03:05:16.026Z,11.05
2018-04-08T03:06:15.666Z,11.07
2018-04-08T03:07:16.321Z,11.10
2018-04-08T03:08:15.684Z,11.15
2018-04-08T03:09:37.634Z,11.22
2018-04-08T03:10:37.990Z,11.26
2018-04-08T03:11:38.458Z,11.30
2018-04-08T03:12:38.250Z,11.35
2018-04-08T03:13:38.609Z,11.40
2018-04-08T03:14:38.208Z,11.43
2018-04-08T03:15:38.828Z,11.45
2018-04-08T03:16:38.276Z,11.50
2018-04-08T03:17:37.772Z,11.51
2018-04-08T03:18:38.524Z,11.50
2018-04-08T03:19:38.097Z,11.47
2018-04-08T03:20:38.015Z,11.45
2018-04-08T03:21:38.325Z,11.47
2018-04-08T03:22:38.049Z,11.50
2018-04-08T03:23:38.415Z,11.51
2018-04-08T03:24:37.779Z,11.48
2018-04-08T03:25:38.150Z,11.47
2018-04-08T03:26:38.907Z,11.43
2018-04-08T03:27:38.602Z,11.40
2018-04-08T03:28:38.194Z,11.36
2018-04-08T03:29:38.860Z,11.33
2018-04-08T03:30:38.376Z,11.29
2018-04-08T03:31:37.838Z,11.25
2018-04-08T03:32:38.191Z,11.22
2018-04-08T03:33:38.072Z,11.22
2018-04-08T03:34:38.900Z,11.22
2018-04-08T03:35:59.808Z,11.22
2018-04-08T03:37:00.206Z,11.23
2018-04-08T03:38:00.007Z,11.26
2018-04-08T03:39:00.567Z,11.25
2018-04-08T03:40:00.390Z,11.25
2018-04-08T03:41:00.189Z,11.23
2018-04-08T03:41:59.899Z,11.19
2018-04-08T03:43:21.677Z,11.17
2018-04-08T03:44:22.509Z,11.15
2018-04-08T03:45:22.397Z,11.14
2018-04-08T03:46:21.731Z,11.12
2018-04-08T03:47:22.028Z,11.11
2018-04-08T03:48:22.422Z,11.10
2018-04-08T03:49:22.106Z,11.07
2018-04-08T03:50:22.681Z,11.04
2018-04-08T03:51:22.437Z,11.00
2018-04-08T03:52:42.990Z,10.99
2018-04-08T03:53:43.428Z,10.94
2018-04-08T03:54:42.760Z,10.93
2018-04-08T03:56:04.729Z,10.92
2018-04-08T03:57:05.590Z,10.90
2018-04-08T03:58:26.510Z,10.89
2018-04-08T03:59:27.232Z,10.87
2018-04-08T04:00:26.798Z,10.86
2018-04-08T04:01:27.583Z,10.87
2018-04-08T04:02:27.043Z,10.89
2018-04-08T04:03:26.849Z,10.90
2018-04-08T04:04:48.723Z,10.93
2018-04-08T04:05:49.572Z,10.93
2018-04-08T04:06:49.218Z,10.94
2018-04-08T04:07:48.776Z,10.93
2018-04-08T04:08:49.175Z,10.94
2018-04-08T04:10:30.249Z,10.99
2018-04-08T04:11:30.980Z,10.94
2018-04-08T04:12:30.714Z,10.96
2018-04-08T04:13:31.074Z,10.93
2018-04-08T04:14:51.326Z,10.93
2018-04-08T04:15:52.069Z,10.93
2018-04-08T04:16:51.583Z,10.94
2018-04-08T04:17:52.003Z,10.93
2018-04-08T04:19:12.462Z,10.94
2018-04-08T04:20:13.027Z,10.97
2018-04-08T04:21:13.411Z,10.99
2018-04-08T04:22:12.832Z,10.97
2018-04-08T04:23:13.485Z,10.93
2018-04-08T04:24:13.483Z,10.93
2018-04-08T04:25:34.640Z,10.93
2018-04-08T04:26:35.149Z,10.92
2018-04-08T04:27:34.599Z,10.93
2018-04-08T04:28:56.445Z,10.94
2018-04-08T04:30:17.904Z,10.94
2018-04-08T04:31:18.669Z,10.92
2018-04-08T04:32:18.163Z,10.90
2018-04-08T04:33:18.960Z,10.87
2018-04-08T04:34:18.550Z,10.84
2018-04-08T04:35:18.111Z,10.81
2018-04-08T04:36:18.782Z,10.81
2018-04-08T04:37:39.460Z,10.82
2018-04-08T04:39:00.274Z,10.84
2018-04-08T04:40:01.267Z,10.86
2018-04-08T04:41:00.663Z,10.89
2018-04-08T04:42:01.117Z,10.92
2018-04-08T04:43:00.803Z,10.94
2018-04-08T04:44:00.312Z,10.96
2018-04-08T04:45:00.736Z,10.93
2018-04-08T04:46:00.388Z,10.92
2018-04-08T04:47:00.751Z,10.90
2018-04-08T04:48:23.372Z,10.86
2018-04-08T04:49:24.262Z,10.86
2018-04-08T04:50:23.615Z,10.84
2018-04-08T04:51:23.401Z,10.82
2018-04-08T04:52:24.002Z,10.79
2018-04-08T04:53:23.516Z,10.76
2018-04-08T04:54:23.135Z,10.76
2018-04-08T04:55:23.817Z,10.76
2018-04-08T04:56:23.559Z,10.76
2018-04-08T04:57:25.967Z,10.79
2018-04-08T04:58:23.689Z,10.81
2018-04-08T04:59:23.101Z,10.81
2018-04-08T05:00:23.995Z,10.81
2018-04-08T05:01:23.996Z,10.81
2018-04-08T05:02:23.504Z,10.82
2018-04-08T05:03:24.311Z,10.82
2018-04-08T05:04:24.364Z,10.84
2018-04-08T05:05:24.253Z,10.87
2018-04-08T05:06:44.789Z,10.90
2018-04-08T05:07:45.571Z,10.92
2018-04-08T05:08:45.013Z,10.94
2018-04-08T05:10:06.072Z,11.02
2018-04-08T05:11:27.993Z,11.08
2018-04-08T05:12:27.789Z,11.12
2018-04-08T05:13:49.683Z,11.17
2018-04-08T05:14:50.192Z,11.25
2018-04-08T05:15:50.721Z,11.29
2018-04-08T05:17:12.232Z,11.33
2018-04-08T05:18:11.660Z,11.37
2018-04-08T05:19:12.151Z,11.43
2018-04-08T05:20:53.296Z,11.48
2018-04-08T05:21:53.872Z,11.52
2018-04-08T05:22:53.592Z,11.59
2018-04-08T05:23:53.088Z,11.63
2018-04-08T05:24:53.704Z,11.68
2018-04-08T05:25:53.285Z,11.73
2018-04-08T05:26:53.838Z,11.78
2018-04-08T05:27:53.803Z,11.83
2018-04-08T05:28:53.678Z,11.84
2018-04-08T05:29:53.327Z,11.87
2018-04-08T05:30:54.099Z,11.88
2018-04-08T05:31:54.054Z,11.94
2018-04-08T05:33:15.123Z,11.95
2018-04-08T05:34:36.603Z,11.97
2018-04-08T05:35:37.669Z,11.97
2018-04-08T05:37:20.959Z,12.00
2018-04-08T05:38:23.017Z,12.03
2018-04-08T05:39:21.512Z,12.07
2018-04-08T05:40:21.154Z,12.15
2018-04-08T05:41:21.706Z,12.27
2018-04-08T05:42:21.415Z,12.42
2018-04-08T05:43:22.065Z,12.58
2018-04-08T05:44:21.944Z,12.73
2018-04-08T05:45:42.695Z,12.93
2018-04-08T05:47:04.379Z,13.13
2018-04-08T05:48:27.272Z,13.30
2018-04-08T05:49:28.013Z,13.42
2018-04-08T05:50:27.988Z,13.56
2018-04-08T05:51:27.434Z,13.68
2018-04-08T05:52:27.002Z,13.81
2018-04-08T05:53:27.417Z,13.92
2018-04-08T05:55:09.358Z,14.10
2018-04-08T05:56:30.902Z,14.22
2018-04-08T05:57:31.766Z,14.28
2018-04-08T05:58:31.239Z,14.28
2018-04-08T05:59:30.986Z,14.32
2018-04-08T06:00:31.944Z,14.40
2018-04-08T06:01:31.539Z,14.48
2018-04-08T06:02:31.391Z,14.62
2018-04-08T06:03:31.533Z,14.72
2018-04-08T06:04:31.178Z,14.72
2018-04-08T06:05:31.742Z,14.73
2018-04-08T06:06:31.310Z,14.79
2018-04-08T06:07:31.427Z,14.84
2018-04-08T06:08:31.437Z,14.85
2018-04-08T06:09:31.488Z,14.88
2018-04-08T06:10:31.374Z,14.92
2018-04-08T06:11:31.401Z,14.94
2018-04-08T06:12:30.979Z,14.97
2018-04-08T06:13:31.982Z,14.99
2018-04-08T06:14:31.945Z,14.96
2018-04-08T06:15:31.778Z,14.92
2018-04-08T06:16:31.684Z,14.96
2018-04-08T06:17:31.324Z,14.92
2018-04-08T06:18:31.000Z,14.89
2018-04-08T06:19:53.055Z,14.92
2018-04-08T06:20:54.039Z,14.94
2018-04-08T06:21:53.042Z,15.02
2018-04-08T06:23:15.224Z,15.09
2018-04-08T06:24:16.017Z,15.17
2018-04-08T06:25:16.017Z,15.21
2018-04-08T06:26:36.797Z,15.33
2018-04-08T06:27:37.527Z,15.47
2018-04-08T06:28:37.206Z,15.65
2018-04-08T06:29:38.032Z,15.90
2018-04-08T06:30:38.008Z,16.10
2018-04-08T06:31:37.792Z,16.36
2018-04-08T06:32:37.575Z,16.51
2018-04-08T06:33:37.473Z,16.51
2018-04-08T06:34:37.492Z,16.64
2018-04-08T06:35:59.373Z,16.93
2018-04-08T06:36:59.054Z,17.29
2018-04-08T06:37:59.867Z,17.67
2018-04-08T06:39:20.810Z,18.03
2018-04-08T06:40:21.468Z,18.20
2018-04-08T06:41:21.123Z,18.20
2018-04-08T06:42:42.276Z,18.22
2018-04-08T06:43:42.256Z,18.45
2018-04-08T06:44:41.960Z,18.59
2018-04-08T06:45:43.152Z,18.63
2018-04-08T06:46:43.422Z,18.89
2018-04-08T06:47:42.733Z,18.86
2018-04-08T06:49:25.657Z,18.74
2018-04-08T06:50:25.305Z,18.75
2018-04-08T06:51:24.867Z,18.70
2018-04-08T06:52:25.834Z,18.50
2018-04-08T06:53:25.882Z,18.29
2018-04-08T06:54:25.404Z,18.38
2018-04-08T06:55:25.322Z,18.62
2018-04-08T06:56:25.253Z,18.62
2018-04-08T06:57:24.854Z,18.50
2018-04-08T06:58:25.880Z,18.55
2018-04-08T06:59:25.022Z,18.52
2018-04-08T07:00:25.048Z,18.37
2018-04-08T07:01:24.696Z,18.23
2018-04-08T07:02:25.878Z,18.20
2018-04-08T07:03:25.397Z,18.23
2018-04-08T07:04:28.803Z,18.45
2018-04-08T07:05:25.926Z,18.50
2018-04-08T07:06:25.833Z,18.34
2018-04-08T07:07:25.351Z,18.34
2018-04-08T07:08:26.168Z,18.43
2018-04-08T07:09:25.139Z,18.33
2018-04-08T07:10:25.211Z,18.40
2018-04-08T07:11:48.212Z,18.52
2018-04-08T07:12:49.237Z,18.63
2018-04-08T07:14:09.968Z,18.93
2018-04-08T07:15:31.918Z,18.88
2018-04-08T07:16:32.962Z,18.84
2018-04-08T07:17:33.054Z,18.84
2018-04-08T07:18:33.359Z,18.77
2018-04-08T07:19:32.166Z,18.74
2018-04-08T07:20:32.857Z,18.75
2018-04-08T07:21:32.736Z,18.71
2018-04-08T07:22:33.082Z,18.73
2018-04-08T07:23:55.309Z,18.65
2018-04-08T07:24:56.473Z,18.50
2018-04-08T07:25:55.460Z,18.37
2018-04-08T07:26:55.652Z,18.37
2018-04-08T07:27:55.788Z,18.35
2018-04-08T07:28:55.772Z,18.26
2018-04-08T07:29:55.963Z,18.23
2018-04-08T07:30:55.862Z,18.28
2018-04-08T07:31:55.860Z,18.26
2018-04-08T07:32:56.220Z,18.28
2018-04-08T07:33:56.196Z,18.25
2018-04-08T07:34:56.031Z,18.19
2018-04-08T07:35:55.858Z,18.25
2018-04-08T07:36:55.711Z,18.28
2018-04-08T07:37:55.578Z,18.23
2018-04-08T07:38:55.866Z,18.16
2018-04-08T07:40:37.798Z,18.16
2018-04-08T07:41:58.978Z,18.15
2018-04-08T07:43:00.148Z,18.22
2018-04-08T07:44:19.705Z,18.33
2018-04-08T07:45:20.807Z,18.47
2018-04-08T07:46:20.017Z,18.55
2018-04-08T07:47:20.490Z,18.65
2018-04-08T07:48:20.466Z,18.65
2018-04-08T07:49:20.291Z,18.71
2018-04-08T07:50:20.221Z,18.95
2018-04-08T07:51:20.350Z,19.09
2018-04-08T07:52:20.704Z,19.33
2018-04-08T07:53:20.896Z,19.27
2018-04-08T07:54:21.111Z,19.19
2018-04-08T07:55:20.628Z,19.27
2018-04-08T07:56:21.263Z,19.37
2018-04-08T07:57:20.962Z,19.41
2018-04-08T07:58:21.280Z,19.41
2018-04-08T07:59:20.847Z,19.54
2018-04-08T08:00:20.252Z,19.74
2018-04-08T08:01:20.662Z,19.94
2018-04-08T08:02:21.049Z,20.02
2018-04-08T08:03:20.030Z,20.06
2018-04-08T08:04:20.221Z,20.22
2018-04-08T08:05:20.660Z,20.24
2018-04-08T08:06:20.562Z,20.55
2018-04-08T08:07:21.188Z,20.92
2018-04-08T08:08:20.183Z,21.17
2018-04-08T08:09:20.525Z,21.25
2018-04-08T08:10:20.814Z,21.24
2018-04-08T08:11:20.717Z,21.30
2018-04-08T08:12:20.826Z,21.30
2018-04-08T08:13:21.046Z,21.39
2018-04-08T08:14:42.151Z,21.57
2018-04-08T08:15:41.931Z,21.75
2018-04-08T08:16:43.377Z,21.92
2018-04-08T08:17:42.224Z,21.96
2018-04-08T08:18:42.574Z,21.99
2018-04-08T08:19:42.770Z,22.10
2018-04-08T08:20:45.259Z,22.41
2018-04-08T08:21:42.252Z,22.62
2018-04-08T08:23:07.041Z,22.72
2018-04-08T08:24:07.618Z,22.68
2018-04-08T08:25:07.598Z,22.44
2018-04-08T08:26:07.866Z,22.50
2018-04-08T08:27:29.788Z,22.55
2018-04-08T08:28:29.772Z,22.70
2018-04-08T08:29:30.010Z,22.94
2018-04-08T08:30:29.936Z,23.21
2018-04-08T08:31:54.348Z,23.34
2018-04-08T08:32:54.044Z,23.27
2018-04-08T08:33:55.360Z,23.17
2018-04-08T08:34:54.314Z,23.37
2018-04-08T08:35:54.347Z,23.55
2018-04-08T08:36:54.016Z,23.73
2018-04-08T08:37:55.184Z,23.93
2018-04-08T08:38:55.659Z,24.10
2018-04-08T08:40:16.384Z,24.35
2018-04-08T08:41:16.125Z,24.63
2018-04-08T08:42:17.030Z,24.39
2018-04-08T08:43:17.144Z,24.18
2018-04-08T08:44:16.828Z,24.10
2018-04-08T08:45:37.905Z,24.20
2018-04-08T08:46:38.677Z,24.24
2018-04-08T08:47:58.711Z,24.05
2018-04-08T08:48:59.913Z,23.81
2018-04-08T08:49:58.624Z,23.58
2018-04-08T08:50:59.841Z,23.62
2018-04-08T08:51:59.527Z,23.62
2018-04-08T08:52:59.610Z,23.61
2018-04-08T08:53:59.471Z,23.46
2018-04-08T08:54:59.323Z,23.59
2018-04-08T08:55:59.599Z,23.68
2018-04-08T08:56:59.352Z,23.65
2018-04-08T08:57:59.431Z,23.87
2018-04-08T08:58:59.493Z,24.17
2018-04-08T08:59:59.379Z,24.16
2018-04-08T09:00:59.041Z,24.18
2018-04-08T09:02:20.585Z,23.77
2018-04-08T09:03:20.800Z,23.47
2018-04-08T09:04:20.804Z,23.28
2018-04-08T09:05:21.141Z,23.24
2018-04-08T09:06:44.616Z,23.28
2018-04-08T09:07:45.347Z,23.44
2018-04-08T09:08:45.204Z,23.41
2018-04-08T09:09:45.389Z,23.28
2018-04-08T09:10:45.438Z,23.23
2018-04-08T09:11:45.222Z,23.27
2018-04-08T09:12:45.145Z,23.05
2018-04-08T09:14:07.180Z,22.85
2018-04-08T09:15:07.981Z,22.84
2018-04-08T09:16:07.342Z,22.88
2018-04-08T09:17:07.920Z,23.05
2018-04-08T09:18:07.617Z,23.20
2018-04-08T09:19:07.947Z,23.28
2018-04-08T09:20:07.540Z,23.21
2018-04-08T09:21:28.187Z,23.24
2018-04-08T09:22:28.402Z,23.32
2018-04-08T09:23:28.620Z,23.43
2018-04-08T09:24:28.729Z,23.48
2018-04-08T09:25:28.816Z,23.66
2018-04-08T09:26:28.471Z,23.73
2018-04-08T09:27:28.115Z,23.87
2018-04-08T09:28:28.784Z,23.93
2018-04-08T09:29:31.374Z,24.01
2018-04-08T09:30:28.581Z,24.10
2018-04-08T09:31:50.024Z,24.11
2018-04-08T09:32:51.048Z,24.20
2018-04-08T09:33:50.275Z,24.42
2018-04-08T09:35:11.223Z,24.80
2018-04-08T09:36:33.262Z,24.80
2018-04-08T09:37:33.408Z,24.60
2018-04-08T09:38:33.464Z,24.40
2018-04-08T09:39:54.983Z,24.33
2018-04-08T09:41:38.390Z,24.20
2018-04-08T09:42:38.118Z,24.14
2018-04-08T09:43:39.071Z,24.28
2018-04-08T09:44:39.204Z,24.35
2018-04-08T09:45:44.211Z,24.38
2018-04-08T09:46:39.607Z,24.38
2018-04-08T09:47:38.402Z,24.38
2018-04-08T09:48:38.172Z,24.26
2018-04-08T09:49:38.966Z,24.36
2018-04-08T09:50:39.011Z,24.35
2018-04-08T09:51:38.859Z,24.18
2018-04-08T09:53:00.117Z,24.13
2018-04-08T09:54:21.784Z,24.08
2018-04-08T09:55:22.494Z,24.08
2018-04-08T09:56:22.661Z,24.03
2018-04-08T09:57:22.376Z,23.93
2018-04-08T09:58:22.065Z,23.84
2018-04-08T09:59:22.330Z,23.80
2018-04-08T10:00:22.505Z,23.84
2018-04-08T10:01:22.483Z,23.92
2018-04-08T10:02:22.736Z,23.92
2018-04-08T10:03:44.692Z,23.84
2018-04-08T10:05:06.766Z,23.76
2018-04-08T10:06:31.047Z,23.87
2018-04-08T10:07:32.636Z,24.02
2018-04-08T10:08:31.443Z,24.16
2018-04-08T10:09:31.572Z,24.20
2018-04-08T10:10:53.452Z,24.39
2018-04-08T10:11:53.283Z,24.50
2018-04-08T10:12:53.099Z,24.48
2018-04-08T10:13:54.262Z,24.33
2018-04-08T10:15:36.160Z,24.39
2018-04-08T10:17:17.933Z,24.55
2018-04-08T10:18:17.733Z,24.68
2018-04-08T10:19:18.277Z,24.69
2018-04-08T10:20:18.229Z,24.78
2018-04-08T10:21:17.964Z,24.88
2018-04-08T10:22:18.344Z,24.89
2018-04-08T10:23:18.810Z,24.92
2018-04-08T10:24:18.627Z,25.06
2018-04-08T10:25:39.851Z,25.28
2018-04-08T10:27:24.731Z,25.46
2018-04-08T10:28:24.763Z,25.41
2018-04-08T10:29:24.811Z,25.50
2018-04-08T10:30:25.063Z,25.62
2018-04-08T10:31:25.022Z,25.77
2018-04-08T10:32:25.068Z,25.83
2018-04-08T10:33:24.964Z,26.00
2018-04-08T10:34:26.249Z,26.15
2018-04-08T10:35:24.997Z,26.33
2018-04-08T10:36:25.102Z,26.62
2018-04-08T10:37:25.160Z,26.68
2018-04-08T10:38:25.184Z,26.83
2018-04-08T10:39:25.484Z,26.97
2018-04-08T10:40:25.957Z,27.03
2018-04-08T10:41:25.146Z,26.93
2018-04-08T10:42:24.991Z,26.90
2018-04-08T10:43:24.844Z,27.03
2018-04-08T10:44:24.846Z,27.18
2018-04-08T10:45:25.028Z,27.42
2018-04-08T10:46:46.055Z,27.90
2018-04-08T10:47:47.410Z,28.22
2018-04-08T10:48:46.391Z,28.44
2018-04-08T10:50:28.935Z,28.59
2018-04-08T10:51:28.864Z,28.57
2018-04-08T10:52:28.648Z,28.54
2018-04-08T10:53:50.805Z,29.10
2018-04-08T10:54:51.969Z,29.08
2018-04-08T10:55:51.976Z,28.98
2018-04-08T10:56:51.855Z,29.22
2018-04-08T10:57:51.792Z,29.69
2018-04-08T10:58:51.596Z,30.23
2018-04-08T10:59:51.363Z,30.57
2018-04-08T11:00:50.888Z,30.72
2018-04-08T11:01:51.802Z,31.14
2018-04-08T11:02:51.465Z,31.43
2018-04-08T11:03:51.386Z,31.69
2018-04-08T11:04:51.413Z,31.89
2018-04-08T11:05:51.609Z,32.18
2018-04-08T11:06:51.691Z,32.48
2018-04-08T11:08:13.623Z,32.77
2018-04-08T11:09:14.567Z,32.77
2018-04-08T11:10:14.868Z,32.97
2018-04-08T11:11:34.788Z,33.42
2018-04-08T11:12:36.007Z,33.47
2018-04-08T11:13:35.924Z,32.89
2018-04-08T11:14:35.875Z,32.64
2018-04-08T11:15:35.704Z,32.41
2018-04-08T11:16:56.945Z,32.29
2018-04-08T11:17:58.097Z,32.31
2018-04-08T11:18:57.946Z,32.26
2018-04-08T11:19:58.165Z,32.07
2018-04-08T11:20:57.883Z,31.76
2018-04-08T11:21:58.105Z,31.51
2018-04-08T11:22:57.904Z,31.07
2018-04-08T11:23:58.259Z,30.75
2018-04-08T11:24:57.388Z,30.90
2018-04-08T11:25:57.787Z,31.14
2018-04-08T11:27:19.157Z,31.61
2018-04-08T11:28:18.976Z,32.01
2018-04-08T11:29:19.773Z,32.30
2018-04-08T11:30:20.068Z,32.64
2018-04-08T11:31:19.847Z,32.93
2018-04-08T11:32:20.040Z,33.40
2018-04-08T11:33:19.225Z,33.84
2018-04-08T11:34:19.564Z,33.84
2018-04-08T11:35:19.843Z,33.39
2018-04-08T11:36:41.075Z,33.47
2018-04-08T11:37:41.717Z,33.62
2018-04-08T11:38:41.797Z,34.11
2018-04-08T11:39:41.620Z,34.27
2018-04-08T11:40:41.502Z,33.94
2018-04-08T11:41:41.770Z,33.67
2018-04-08T11:42:41.834Z,33.27
2018-04-08T11:43:42.040Z,32.93
2018-04-08T11:44:41.706Z,32.27
2018-04-08T11:45:41.789Z,31.66
2018-04-08T11:46:42.074Z,31.37
2018-04-08T11:47:41.892Z,31.18
2018-04-08T11:48:41.951Z,30.96
2018-04-08T11:49:41.666Z,30.84
2018-04-08T11:50:42.298Z,30.72
2018-04-08T11:52:24.429Z,30.39
2018-04-08T11:53:24.194Z,29.95
2018-04-08T11:54:25.239Z,29.68
2018-04-08T11:55:23.998Z,29.65
2018-04-08T11:56:25.164Z,30.34
2018-04-08T11:57:24.869Z,31.09
2018-04-08T11:58:24.867Z,31.62
2018-04-08T11:59:24.618Z,32.23
2018-04-08T12:00:24.662Z,32.71
2018-04-08T12:01:24.307Z,33.22
2018-04-08T12:02:24.464Z,33.67
2018-04-08T12:03:24.120Z,33.98
2018-04-08T12:04:45.974Z,34.58
2018-04-08T12:05:45.844Z,34.92
2018-04-08T12:06:46.012Z,35.04
2018-04-08T12:07:46.063Z,35.14
2018-04-08T12:08:45.816Z,35.18
2018-04-08T12:09:46.525Z,35.15
2018-04-08T12:11:08.382Z,34.90
2018-04-08T12:12:08.107Z,34.95
2018-04-08T12:13:08.250Z,34.67
2018-04-08T12:14:08.342Z,34.38
2018-04-08T12:15:07.906Z,34.14
2018-04-08T12:16:08.042Z,34.01
2018-04-08T12:17:08.292Z,34.08
2018-04-08T12:18:07.129Z,34.40
2018-04-08T12:19:08.224Z,34.67
2018-04-08T12:20:49.714Z,35.14
2018-04-08T12:22:32.110Z,35.73
2018-04-08T12:23:32.721Z,35.97
2018-04-08T12:25:14.707Z,36.28
2018-04-08T12:26:15.304Z,36.61
2018-04-08T12:27:15.451Z,36.61
2018-04-08T12:28:15.278Z,36.55
2018-04-08T12:29:15.328Z,36.47
2018-04-08T12:30:15.793Z,36.57
2018-04-08T12:31:15.578Z,36.70
2018-04-08T12:32:15.849Z,36.58
2018-04-08T12:33:37.455Z,36.42
2018-04-08T12:34:38.258Z,36.23
2018-04-08T12:35:37.993Z,36.08
2018-04-08T12:36:37.628Z,36.12
2018-04-08T12:37:38.653Z,36.30
2018-04-08T12:38:38.282Z,36.47
2018-04-08T12:39:38.378Z,36.45
2018-04-08T12:40:38.093Z,36.68
2018-04-08T12:41:38.045Z,36.79
2018-04-08T12:42:37.676Z,36.79
2018-04-08T12:43:37.890Z,36.93
2018-04-08T12:44:38.017Z,36.89
2018-04-08T12:45:38.095Z,36.79
2018-04-08T12:46:38.086Z,36.72
2018-04-08T12:47:37.905Z,36.76
2018-04-08T12:48:37.849Z,36.83
2018-04-08T12:49:37.663Z,36.93
2018-04-08T12:50:38.870Z,36.76
2018-04-08T12:51:38.018Z,36.79
2018-04-08T12:52:38.314Z,36.65
2018-04-08T12:53:38.124Z,36.70
2018-04-08T12:54:37.757Z,36.62
2018-04-08T12:55:37.490Z,36.65
2018-04-08T12:56:38.312Z,36.73
2018-04-08T12:58:20.380Z,35.79
2018-04-08T13:00:05.308Z,35.12
2018-04-08T13:01:06.904Z,35.07
2018-04-08T13:02:26.540Z,35.27
2018-04-08T13:03:27.216Z,35.33
2018-04-08T13:04:48.820Z,35.64
2018-04-08T13:05:49.492Z,35.82
2018-04-08T13:06:49.263Z,36.02
2018-04-08T13:07:48.880Z,36.23
2018-04-08T13:09:52.565Z,36.61
2018-04-08T13:10:53.243Z,36.64
2018-04-08T13:11:53.270Z,36.55
2018-04-08T13:14:15.642Z,36.74
2018-04-08T13:15:15.720Z,36.70
2018-04-08T13:16:15.629Z,36.58
2018-04-08T13:17:39.226Z,36.57
2018-04-08T13:18:40.002Z,36.58
2018-04-08T13:19:39.801Z,36.55
2018-04-08T13:20:39.792Z,36.45
2018-04-08T13:21:39.410Z,36.40
2018-04-08T13:22:40.084Z,36.42
2018-04-08T13:24:01.648Z,36.55
2018-04-08T13:25:01.691Z,36.52
2018-04-08T13:26:01.536Z,36.39
2018-04-08T13:27:01.229Z,36.39
2018-04-08T13:28:02.155Z,36.42
2018-04-08T13:29:02.118Z,36.00
2018-04-08T13:30:01.663Z,35.88
2018-04-08T13:31:01.556Z,35.85
2018-04-08T13:32:02.248Z,35.89
2018-04-08T13:33:02.398Z,35.88
2018-04-08T13:34:02.134Z,36.01
2018-04-08T13:35:01.854Z,36.12
2018-04-08T13:36:23.128Z,36.16
2018-04-08T13:37:23.311Z,36.02
2018-04-08T13:38:23.087Z,36.08
2018-04-08T13:39:22.946Z,35.85
2018-04-08T13:40:23.112Z,35.48
2018-04-08T13:41:24.069Z,34.83
2018-04-08T13:42:23.519Z,34.43
2018-04-08T13:43:45.351Z,34.06
2018-04-08T13:44:46.346Z,33.89
2018-04-08T13:45:46.028Z,33.61